createdAt,value
2018-12-15T00:00:51.268Z,2.10
2018-12-15T00:03:17.367Z,2.10
2018-12-15T00:05:43.625Z,2.10
2018-12-15T00:08:09.854Z,2.00
2018-12-15T00:10:36.111Z,2.10
2018-12-15T00:13:02.428Z,2.10
2018-12-15T00:15:28.677Z,2.10
2018-12-15T00:17:54.767Z,2.00
2018-12-15T00:20:21.403Z,2.00
2018-12-15T00:22:47.590Z,2.00
2018-12-15T00:25:13.883Z,2.10
2018-12-15T00:27:40.066Z,2.10
2018-12-15T00:30:06.349Z,2.00
2018-12-15T00:32:32.530Z,1.90
2018-12-15T00:34:58.789Z,1.90
2018-12-15T00:37:25.022Z,2.00
2018-12-15T00:39:51.145Z,1.90
2018-12-15T00:42:17.462Z,1.70
2018-12-15T00:44:43.608Z,1.80
2018-12-15T00:47:13.814Z,1.80
2018-12-15T00:49:38.217Z,1.60
2018-12-15T00:52:04.505Z,1.70
2018-12-15T00:54:30.707Z,1.70
2018-12-15T00:56:56.824Z,1.70
2018-12-15T00:59:23.077Z,1.70
2018-12-15T01:01:49.355Z,1.80
2018-12-15T01:04:15.743Z,1.70
2018-12-15T01:06:42.082Z,1.70
2018-12-15T01:09:08.241Z,1.70
2018-12-15T01:11:34.377Z,1.60
2018-12-15T01:14:07.561Z,1.60
2018-12-15T01:16:33.662Z,1.70
2018-12-15T01:18:59.889Z,1.70
2018-12-15T01:21:25.995Z,1.80
2018-12-15T01:23:52.268Z,1.90
2018-12-15T01:26:18.402Z,1.80
2018-12-15T01:28:44.552Z,1.80
2018-12-15T01:31:10.777Z,1.70
2018-12-15T01:33:36.998Z,1.70
2018-12-15T01:36:03.260Z,1.70
2018-12-15T01:38:29.396Z,1.60
2018-12-15T01:40:55.716Z,1.60
2018-12-15T01:43:21.842Z,1.70
2018-12-15T01:45:55.041Z,1.60
2018-12-15T01:48:21.136Z,1.50
2018-12-15T01:50:47.243Z,1.60
2018-12-15T01:53:13.350Z,1.60
2018-12-15T01:55:39.480Z,1.60
2018-12-15T01:58:05.566Z,1.60
2018-12-15T02:00:31.910Z,1.60
2018-12-15T02:02:58.030Z,1.70
2018-12-15T02:05:24.314Z,1.80
2018-12-15T02:07:50.663Z,1.60
2018-12-15T02:10:16.987Z,1.60
2018-12-15T02:12:43.240Z,1.50
2018-12-15T02:15:09.561Z,1.70
2018-12-15T02:17:35.778Z,1.70
2018-12-15T02:20:03.685Z,1.60
2018-12-15T02:22:29.972Z,1.40
2018-12-15T02:24:56.246Z,1.40
2018-12-15T02:27:22.361Z,1.30
2018-12-15T02:29:48.477Z,1.40
2018-12-15T02:32:14.718Z,1.40
2018-12-15T02:34:40.845Z,1.40
2018-12-15T02:37:07.082Z,1.40
2018-12-15T02:39:33.216Z,1.30
2018-12-15T02:41:59.463Z,1.30
2018-12-15T02:44:25.673Z,1.30
2018-12-15T02:46:51.890Z,1.50
2018-12-15T02:49:18.086Z,1.50
2018-12-15T02:51:44.208Z,1.50
2018-12-15T02:54:10.326Z,1.60
2018-12-15T02:56:36.558Z,1.50
2018-12-15T02:59:02.958Z,1.60
2018-12-15T03:01:29.051Z,1.60
2018-12-15T03:04:02.257Z,1.50
2018-12-15T03:06:29.076Z,1.50
2018-12-15T03:08:55.322Z,1.60
2018-12-15T03:11:21.437Z,1.70
2018-12-15T03:13:47.682Z,1.60
2018-12-15T03:16:13.798Z,1.70
2018-12-15T03:18:39.957Z,1.60
2018-12-15T03:21:06.135Z,1.50
2018-12-15T03:23:32.349Z,1.60
2018-12-15T03:25:58.472Z,1.50
2018-12-15T03:28:24.700Z,1.60
2018-12-15T03:30:50.822Z,1.40
2018-12-15T03:33:17.022Z,1.30
2018-12-15T03:35:43.182Z,1.20
2018-12-15T03:38:09.412Z,1.30
2018-12-15T03:40:35.858Z,1.40
2018-12-15T03:43:01.971Z,1.40
2018-12-15T03:45:28.063Z,1.50
2018-12-15T03:47:56.317Z,1.60
2018-12-15T03:50:22.506Z,1.50
2018-12-15T03:52:48.641Z,1.50
2018-12-15T03:55:14.721Z,1.70
2018-12-15T03:57:40.836Z,1.70
2018-12-15T04:00:08.142Z,1.70
2018-12-15T04:02:34.363Z,1.70
2018-12-15T04:05:00.502Z,1.60
2018-12-15T04:07:26.715Z,1.70
2018-12-15T04:09:52.886Z,1.40
2018-12-15T04:12:19.082Z,1.60
2018-12-15T04:14:45.438Z,1.60
2018-12-15T04:17:12.344Z,1.60
2018-12-15T04:19:38.433Z,1.60
2018-12-15T04:22:15.704Z,1.60
2018-12-15T04:24:41.787Z,1.60
2018-12-15T04:27:07.889Z,1.70
2018-12-15T04:29:40.946Z,1.60
2018-12-15T04:32:07.265Z,1.60
2018-12-15T04:34:33.485Z,1.60
2018-12-15T04:36:59.613Z,1.70
2018-12-15T04:39:25.963Z,1.60
2018-12-15T04:41:52.157Z,1.70
2018-12-15T04:44:18.359Z,1.70
2018-12-15T04:46:44.970Z,1.60
2018-12-15T04:49:11.071Z,1.70
2018-12-15T04:51:37.309Z,1.70
2018-12-15T04:54:03.504Z,1.80
2018-12-15T04:56:29.857Z,1.60
2018-12-15T04:58:56.113Z,1.50
2018-12-15T05:01:22.305Z,1.50
2018-12-15T05:03:48.418Z,1.60
2018-12-15T05:06:14.544Z,1.70
2018-12-15T05:08:40.771Z,1.80
2018-12-15T05:11:06.842Z,1.90
2018-12-15T05:13:32.994Z,1.90
2018-12-15T05:15:59.146Z,1.80
2018-12-15T05:18:25.308Z,1.70
2018-12-15T05:20:51.440Z,1.70
2018-12-15T05:23:17.739Z,1.60
2018-12-15T05:25:43.860Z,1.70
2018-12-15T05:28:10.066Z,1.70
2018-12-15T05:30:36.209Z,1.70
2018-12-15T05:33:02.552Z,1.70
2018-12-15T05:35:29.382Z,1.70
2018-12-15T05:37:55.713Z,1.70
2018-12-15T05:40:21.952Z,1.80
2018-12-15T05:42:48.074Z,1.70
2018-12-15T05:45:14.406Z,1.70
2018-12-15T05:47:40.529Z,1.70
2018-12-15T05:50:06.791Z,1.70
2018-12-15T05:52:32.961Z,1.70
2018-12-15T05:54:59.166Z,1.70
2018-12-15T05:57:25.387Z,1.70
2018-12-15T05:59:51.612Z,1.70
2018-12-15T06:02:18.685Z,1.60
2018-12-15T06:04:44.929Z,1.60
2018-12-15T06:07:11.292Z,1.60
2018-12-15T06:09:37.438Z,1.50
2018-12-15T06:12:03.769Z,1.60
2018-12-15T06:14:30.062Z,1.60
2018-12-15T06:16:56.302Z,1.60
2018-12-15T06:19:22.437Z,1.50
2018-12-15T06:21:48.557Z,1.50
2018-12-15T06:24:14.772Z,1.50
2018-12-15T06:26:41.001Z,1.50
2018-12-15T06:29:07.213Z,1.50
2018-12-15T06:34:16.671Z,1.40
2018-12-15T06:36:42.910Z,1.40
2018-12-15T06:39:09.129Z,1.50
2018-12-15T06:41:35.350Z,1.60
2018-12-15T06:44:08.752Z,1.60
2018-12-15T06:46:35.040Z,1.60
2018-12-15T06:49:01.304Z,1.60
2018-12-15T06:51:27.682Z,1.70
2018-12-15T06:53:54.067Z,1.70
2018-12-15T06:56:22.307Z,1.70
2018-12-15T06:58:48.470Z,1.70
2018-12-15T07:01:14.815Z,1.70
2018-12-15T07:03:40.897Z,1.70
2018-12-15T07:06:07.101Z,1.70
2018-12-15T07:08:33.357Z,1.70
2018-12-15T07:10:59.510Z,1.70
2018-12-15T07:13:25.673Z,1.70
2018-12-15T07:15:58.827Z,1.70
2018-12-15T07:18:25.053Z,1.60
2018-12-15T07:20:51.306Z,1.70
2018-12-15T07:26:13.609Z,1.80
2018-12-15T07:28:39.907Z,1.70
2018-12-15T07:31:06.100Z,1.60
2018-12-15T07:33:33.124Z,1.70
2018-12-15T07:35:59.408Z,1.80
2018-12-15T07:38:32.741Z,1.90
2018-12-15T07:40:58.943Z,1.90
2018-12-15T07:43:25.813Z,1.80
2018-12-15T07:45:51.989Z,1.80
2018-12-15T07:48:18.097Z,1.70
2018-12-15T07:50:44.322Z,1.70
2018-12-15T07:53:10.548Z,1.70
2018-12-15T07:55:36.738Z,1.70
2018-12-15T07:58:03.077Z,1.70
2018-12-15T08:00:29.291Z,1.60
2018-12-15T08:02:55.427Z,1.70
2018-12-15T08:05:21.765Z,1.80
2018-12-15T08:07:47.860Z,1.80
2018-12-15T08:10:16.627Z,1.80
2018-12-15T08:12:43.214Z,1.90
2018-12-15T08:15:09.521Z,1.90
2018-12-15T08:17:35.878Z,1.90
2018-12-15T08:20:04.789Z,1.90
2018-12-15T08:22:32.023Z,2.00
2018-12-15T08:24:58.148Z,1.80
2018-12-15T08:27:24.404Z,1.80
2018-12-15T08:29:50.506Z,1.90
2018-12-15T08:32:16.737Z,2.00
2018-12-15T08:34:43.006Z,2.10
2018-12-15T08:40:04.016Z,2.00
2018-12-15T08:42:30.390Z,2.00
2018-12-15T08:44:56.726Z,1.90
2018-12-15T08:47:22.881Z,1.90
2018-12-15T08:49:49.002Z,2.00
2018-12-15T08:52:15.161Z,2.10
2018-12-15T08:54:41.404Z,2.00
2018-12-15T08:59:52.667Z,2.00
2018-12-15T09:02:19.059Z,1.80
2018-12-15T09:04:45.362Z,1.90
2018-12-15T09:07:11.621Z,2.10
2018-12-15T09:09:37.799Z,2.10
2018-12-15T09:12:04.162Z,2.20
2018-12-15T09:14:37.508Z,2.30
2018-12-15T09:17:03.880Z,2.30
2018-12-15T09:19:31.162Z,2.30
2018-12-15T09:21:57.672Z,2.30
2018-12-15T09:24:23.933Z,2.30
2018-12-15T09:26:50.267Z,2.30
2018-12-15T09:29:16.528Z,2.40
2018-12-15T09:31:42.671Z,2.40
2018-12-15T09:34:09.842Z,2.50
2018-12-15T09:36:36.089Z,2.50
2018-12-15T09:39:05.687Z,2.40
2018-12-15T09:41:32.020Z,2.40
2018-12-15T09:43:58.302Z,2.40
2018-12-15T09:46:24.474Z,2.40
2018-12-15T09:48:51.510Z,2.50
2018-12-15T09:51:17.821Z,2.60
2018-12-15T09:53:53.294Z,2.50
2018-12-15T09:56:19.662Z,2.40
2018-12-15T09:58:45.929Z,2.50
2018-12-15T10:01:13.021Z,2.40
2018-12-15T10:03:39.274Z,2.50
2018-12-15T10:06:05.904Z,2.50
2018-12-15T10:08:32.024Z,2.40
2018-12-15T10:10:58.153Z,2.40
2018-12-15T10:13:24.363Z,2.40
2018-12-15T10:15:50.618Z,2.50
2018-12-15T10:18:17.897Z,2.40
2018-12-15T10:20:44.125Z,2.50
2018-12-15T10:23:10.261Z,2.30
2018-12-15T10:25:36.504Z,2.30
2018-12-15T10:28:02.868Z,2.30
2018-12-15T10:30:35.076Z,2.30
2018-12-15T10:33:01.213Z,2.40
2018-12-15T10:35:27.335Z,2.20
2018-12-15T10:37:53.729Z,2.10
2018-12-15T10:40:20.117Z,2.20
2018-12-15T10:42:46.393Z,2.20
2018-12-15T10:45:13.125Z,2.10
2018-12-15T10:47:40.159Z,2.00
2018-12-15T10:50:08.759Z,1.90
2018-12-15T10:52:35.109Z,1.90
2018-12-15T10:55:01.619Z,1.90
2018-12-15T10:57:27.921Z,1.90
2018-12-15T10:59:54.303Z,2.00
2018-12-15T11:02:21.653Z,2.00
2018-12-15T11:04:47.870Z,2.00
2018-12-15T11:07:14.100Z,1.90
2018-12-15T11:09:40.983Z,2.00
2018-12-15T11:12:07.458Z,2.00
2018-12-15T11:14:36.622Z,2.00
2018-12-15T11:17:03.872Z,2.00
2018-12-15T11:19:37.085Z,1.90
2018-12-15T11:22:01.207Z,1.90
2018-12-15T11:24:27.636Z,2.00
2018-12-15T11:26:54.007Z,2.10
2018-12-15T11:29:21.562Z,2.20
2018-12-15T11:31:48.399Z,2.30
2018-12-15T11:34:14.742Z,2.40
2018-12-15T11:36:41.689Z,2.40
2018-12-15T11:39:10.635Z,2.40
2018-12-15T11:41:39.468Z,2.30
2018-12-15T11:44:05.696Z,2.30
2018-12-15T11:46:33.049Z,2.30
2018-12-15T11:48:59.345Z,2.30
2018-12-15T11:51:26.297Z,2.30
2018-12-15T11:53:52.552Z,2.30
2018-12-15T11:56:18.789Z,2.40
2018-12-15T11:58:44.934Z,2.50
2018-12-15T12:01:11.453Z,2.50
2018-12-15T12:03:38.495Z,2.60
2018-12-15T12:06:04.821Z,2.50
2018-12-15T12:08:31.943Z,2.50
2018-12-15T12:10:58.340Z,2.40
2018-12-15T12:13:24.684Z,2.40
2018-12-15T12:15:52.094Z,2.50
2018-12-15T12:18:19.224Z,2.50
2018-12-15T12:20:45.450Z,2.50
2018-12-15T12:23:11.728Z,2.50
2018-12-15T12:25:37.977Z,2.40
2018-12-15T12:28:04.566Z,2.50
2018-12-15T12:30:31.775Z,2.60
2018-12-15T12:32:59.448Z,2.60
2018-12-15T12:35:32.806Z,2.50
2018-12-15T12:37:58.913Z,2.60
2018-12-15T12:40:29.330Z,2.50
2018-12-15T12:42:55.589Z,2.30
2018-12-15T12:45:21.879Z,2.30
2018-12-15T12:47:48.466Z,2.30
2018-12-15T12:50:14.952Z,2.30
2018-12-15T12:52:41.806Z,2.30
2018-12-15T12:55:08.485Z,2.30
2018-12-15T12:57:34.711Z,2.30
2018-12-15T13:00:01.930Z,2.30
2018-12-15T13:02:28.268Z,2.20
2018-12-15T13:04:54.494Z,2.30
2018-12-15T13:07:20.925Z,2.20
2018-12-15T13:09:47.153Z,2.30
2018-12-15T13:12:13.627Z,2.30
2018-12-15T13:14:41.686Z,2.20
2018-12-15T13:17:07.894Z,2.20
2018-12-15T13:19:34.137Z,2.30
2018-12-15T13:22:01.320Z,2.30
2018-12-15T13:24:29.264Z,2.20
2018-12-15T13:26:59.119Z,2.30
2018-12-15T13:29:24.753Z,2.20
2018-12-15T13:31:51.004Z,2.30
2018-12-15T13:34:17.279Z,2.30
2018-12-15T13:36:44.390Z,2.30
2018-12-15T13:39:11.523Z,2.30
2018-12-15T13:41:37.860Z,2.30
2018-12-15T13:44:04.142Z,2.30
2018-12-15T13:46:30.325Z,2.30
2018-12-15T13:48:58.456Z,2.40
2018-12-15T13:51:24.740Z,2.40
2018-12-15T13:53:50.970Z,2.30
2018-12-15T13:56:17.126Z,2.30
2018-12-15T13:58:43.339Z,2.30
2018-12-15T14:01:09.657Z,2.30
2018-12-15T14:03:37.376Z,2.30
2018-12-15T14:06:03.707Z,2.30
2018-12-15T14:08:30.979Z,2.30
2018-12-15T14:10:57.160Z,2.30
2018-12-15T14:13:23.357Z,2.30
2018-12-15T14:15:50.204Z,2.40
2018-12-15T14:18:16.430Z,2.40
2018-12-15T14:20:42.682Z,2.30
2018-12-15T14:25:49.198Z,2.30
2018-12-15T14:28:15.553Z,2.30
2018-12-15T14:30:41.811Z,2.30
2018-12-15T14:33:08.111Z,2.30
2018-12-15T14:35:35.577Z,2.40
2018-12-15T14:38:01.730Z,2.40
2018-12-15T14:40:28.897Z,2.40
2018-12-15T14:42:55.179Z,2.40
2018-12-15T14:45:21.442Z,2.40
2018-12-15T14:47:47.576Z,2.40
2018-12-15T14:50:13.937Z,2.30
2018-12-15T14:52:40.131Z,2.20
2018-12-15T14:55:08.537Z,2.20
2018-12-15T14:57:40.229Z,2.30
2018-12-15T15:00:07.951Z,2.30
2018-12-15T15:02:34.314Z,2.20
2018-12-15T15:05:00.640Z,2.10
2018-12-15T15:07:26.917Z,2.20
2018-12-15T15:09:53.068Z,2.20
2018-12-15T15:12:19.923Z,2.20
2018-12-15T15:14:47.012Z,2.20
2018-12-15T15:17:13.569Z,2.20
2018-12-15T15:19:39.899Z,2.20
2018-12-15T15:22:06.071Z,2.10
2018-12-15T15:24:33.787Z,2.10
2018-12-15T15:27:00.942Z,2.10
2018-12-15T15:29:27.760Z,2.20
2018-12-15T15:31:53.896Z,2.10
2018-12-15T15:34:20.492Z,2.20
2018-12-15T15:36:47.731Z,2.20
2018-12-15T15:39:14.157Z,2.20
2018-12-15T15:41:41.347Z,2.20
2018-12-15T15:44:14.359Z,2.10
2018-12-15T15:46:42.352Z,2.10
2018-12-15T15:49:08.675Z,2.00
2018-12-15T15:51:35.344Z,2.10
2018-12-15T15:54:01.584Z,2.10
2018-12-15T15:56:28.180Z,2.10
2018-12-15T15:58:54.308Z,2.10
2018-12-15T16:01:20.669Z,2.10
2018-12-15T16:03:46.968Z,2.20
2018-12-15T16:06:13.206Z,2.00
2018-12-15T16:08:40.338Z,2.00
2018-12-15T16:11:06.706Z,2.10
2018-12-15T16:13:33.097Z,2.10
2018-12-15T16:16:00.341Z,2.10
2018-12-15T16:18:26.445Z,2.10
2018-12-15T16:20:52.668Z,2.10
2018-12-15T16:23:18.808Z,2.10
2018-12-15T16:25:44.927Z,2.10
2018-12-15T16:28:11.285Z,2.00
2018-12-15T16:30:37.517Z,2.00
2018-12-15T16:33:03.849Z,2.00
2018-12-15T16:35:30.285Z,2.10
2018-12-15T16:37:56.409Z,2.10
2018-12-15T16:40:22.625Z,2.10
2018-12-15T16:42:48.845Z,2.00
2018-12-15T16:45:16.241Z,2.00
2018-12-15T16:47:42.505Z,2.00
2018-12-15T16:50:10.434Z,2.10
2018-12-15T16:52:44.039Z,2.10
2018-12-15T16:55:10.670Z,2.10
2018-12-15T16:57:36.907Z,2.00
2018-12-15T17:00:07.362Z,2.00
2018-12-15T17:02:34.661Z,2.10
2018-12-15T17:05:00.799Z,2.10
2018-12-15T17:07:27.715Z,2.10
2018-12-15T17:09:54.072Z,2.10
2018-12-15T17:12:20.315Z,2.20
2018-12-15T17:14:46.441Z,2.20
2018-12-15T17:17:14.046Z,2.20
2018-12-15T17:19:40.499Z,2.20
2018-12-15T17:22:06.858Z,2.20
2018-12-15T17:24:33.011Z,2.20
2018-12-15T17:26:59.410Z,2.00
2018-12-15T17:29:25.663Z,2.10
2018-12-15T17:31:51.885Z,2.00
2018-12-15T17:34:18.158Z,2.10
2018-12-15T17:36:44.262Z,2.00
2018-12-15T17:39:11.115Z,2.10
2018-12-15T17:41:37.238Z,2.20
2018-12-15T17:44:04.454Z,2.10
2018-12-15T17:46:30.589Z,2.00
2018-12-15T17:48:56.913Z,2.10
2018-12-15T17:51:23.097Z,2.20
2018-12-15T17:53:49.242Z,2.20
2018-12-15T17:56:15.408Z,2.10
2018-12-15T18:01:12.506Z,2.10
2018-12-15T18:03:38.726Z,2.10
2018-12-15T18:06:04.950Z,2.10
2018-12-15T18:08:31.740Z,2.00
2018-12-15T18:10:57.919Z,2.00
2018-12-15T18:13:24.152Z,2.00
2018-12-15T18:15:50.572Z,2.00
2018-12-15T18:18:17.309Z,1.90
2018-12-15T18:20:43.564Z,1.90
2018-12-15T18:23:09.748Z,1.80
2018-12-15T18:25:36.075Z,1.70
2018-12-15T18:28:02.490Z,1.80
2018-12-15T18:30:28.660Z,1.90
2018-12-15T18:32:54.941Z,2.00
2018-12-15T18:35:21.116Z,2.00
2018-12-15T18:37:47.357Z,2.00
2018-12-15T18:40:13.572Z,2.00
2018-12-15T18:42:41.360Z,2.00
2018-12-15T18:45:07.746Z,2.00
2018-12-15T18:47:35.187Z,1.90
2018-12-15T18:50:01.568Z,1.90
2018-12-15T18:52:27.863Z,2.00
2018-12-15T18:54:53.976Z,2.00
2018-12-15T18:57:20.110Z,2.00
2018-12-15T18:59:47.372Z,2.10
2018-12-15T19:02:13.479Z,2.10
2018-12-15T19:04:39.817Z,2.10
2018-12-15T19:07:06.164Z,2.20
2018-12-15T19:09:32.374Z,2.10
2018-12-15T19:11:58.575Z,2.00
2018-12-15T19:14:24.827Z,2.00
2018-12-15T19:16:51.025Z,2.00
2018-12-15T19:19:17.395Z,2.00
2018-12-15T19:21:43.547Z,1.90
2018-12-15T19:24:09.674Z,1.90
2018-12-15T19:26:35.958Z,2.00
2018-12-15T19:29:02.107Z,2.00
2018-12-15T19:31:30.060Z,2.00
2018-12-15T19:33:57.020Z,2.10
2018-12-15T19:36:23.766Z,2.00
2018-12-15T19:38:49.916Z,2.10
2018-12-15T19:41:18.993Z,2.10
2018-12-15T19:43:45.147Z,2.10
2018-12-15T19:46:12.218Z,2.10
2018-12-15T19:48:38.380Z,1.90
2018-12-15T19:51:04.728Z,1.80
2018-12-15T19:53:31.006Z,1.70
2018-12-15T19:55:57.204Z,1.80
2018-12-15T19:58:23.422Z,1.80
2018-12-15T20:00:49.764Z,1.90
2018-12-15T20:03:16.001Z,2.00
2018-12-15T20:05:43.173Z,2.00
2018-12-15T20:08:17.715Z,2.10
2018-12-15T20:10:43.882Z,2.10
2018-12-15T20:13:12.061Z,2.10
2018-12-15T20:15:38.305Z,2.10
2018-12-15T20:18:05.260Z,2.00
2018-12-15T20:20:32.181Z,2.00
2018-12-15T20:22:59.477Z,2.00
2018-12-15T20:25:26.446Z,2.00
2018-12-15T20:27:52.571Z,2.10
2018-12-15T20:30:18.830Z,2.00
2018-12-15T20:32:45.177Z,2.00
2018-12-15T20:35:11.448Z,2.10
2018-12-15T20:37:37.624Z,2.10
2018-12-15T20:40:07.086Z,2.10
2018-12-15T20:42:33.287Z,2.00
2018-12-15T20:44:59.526Z,2.00
2018-12-15T20:47:28.069Z,2.00
2018-12-15T20:49:54.118Z,1.90
2018-12-15T20:52:20.376Z,2.00
2018-12-15T20:54:47.110Z,1.80
2018-12-15T20:57:13.312Z,1.80
2018-12-15T20:59:39.686Z,1.90
2018-12-15T21:02:06.110Z,1.80
2018-12-15T21:04:32.534Z,2.00
2018-12-15T21:06:58.863Z,2.00
2018-12-15T21:09:25.350Z,2.00
2018-12-15T21:11:51.813Z,2.10
2018-12-15T21:14:18.126Z,2.10
2018-12-15T21:16:44.460Z,1.90
2018-12-15T21:19:10.902Z,1.90
2018-12-15T21:21:37.129Z,1.90
2018-12-15T21:24:03.470Z,1.90
2018-12-15T21:26:30.493Z,2.00
2018-12-15T21:28:56.720Z,2.00
2018-12-15T21:31:23.076Z,2.00
2018-12-15T21:33:49.362Z,2.00
2018-12-15T21:36:15.643Z,2.20
2018-12-15T21:38:41.872Z,2.20
2018-12-15T21:41:08.136Z,2.10
2018-12-15T21:43:34.348Z,2.10
2018-12-15T21:46:00.465Z,2.10
2018-12-15T21:48:26.585Z,2.00
2018-12-15T21:50:52.836Z,2.00
2018-12-15T21:53:19.149Z,2.00
2018-12-15T21:55:45.409Z,1.90
2018-12-15T21:58:11.636Z,1.90
2018-12-15T22:00:37.858Z,1.90
2018-12-15T22:03:04.122Z,2.00
2018-12-15T22:05:30.546Z,2.00
2018-12-15T22:07:57.190Z,1.90
2018-12-15T22:10:23.454Z,1.90
2018-12-15T22:12:49.613Z,1.90
2018-12-15T22:15:15.981Z,1.90
2018-12-15T22:17:42.166Z,1.90
2018-12-15T22:20:10.072Z,2.00
2018-12-15T22:22:36.375Z,2.10
2018-12-15T22:25:03.036Z,2.00
2018-12-15T22:27:29.148Z,1.90
2018-12-15T22:29:55.427Z,2.10
2018-12-15T22:32:21.579Z,2.10
2018-12-15T22:34:47.712Z,2.10
2018-12-15T22:37:20.886Z,2.20
2018-12-15T22:39:47.021Z,2.00
2018-12-15T22:42:13.341Z,2.00
2018-12-15T22:44:39.518Z,2.00
2018-12-15T22:47:05.758Z,2.10
2018-12-15T22:49:32.063Z,2.10
2018-12-15T22:51:58.432Z,2.20
2018-12-15T22:54:24.691Z,2.20
2018-12-15T22:56:51.092Z,2.10
2018-12-15T22:59:17.234Z,2.10
2018-12-15T23:01:45.397Z,1.80
2018-12-15T23:04:12.169Z,2.00
2018-12-15T23:06:38.626Z,2.00
2018-12-15T23:09:05.918Z,2.00
2018-12-15T23:11:32.294Z,2.10
2018-12-15T23:13:58.561Z,2.10
2018-12-15T23:16:24.817Z,2.20
2018-12-15T23:18:51.013Z,2.10
2018-12-15T23:21:17.274Z,2.10
2018-12-15T23:23:43.478Z,2.10
2018-12-15T23:26:09.674Z,2.00
2018-12-15T23:28:35.793Z,2.00
2018-12-15T23:31:01.995Z,2.00
2018-12-15T23:33:28.257Z,2.10
2018-12-15T23:35:54.438Z,2.10
2018-12-15T23:38:20.667Z,2.20
2018-12-15T23:40:46.842Z,2.20
2018-12-15T23:43:13.161Z,2.20
2018-12-15T23:45:39.394Z,2.10
2018-12-15T23:48:05.626Z,2.00
2018-12-15T23:50:32.027Z,2.10
2018-12-15T23:53:05.129Z,2.20
2018-12-15T23:55:31.455Z,2.10
2018-12-15T23:57:57.797Z,1.90
